CheckWX is a tool to help pilots better visualize weather data.  It is not intended as a substitute for an official pre-flight weather briefing.

20:10:18 UTC

KSDF METAR
Louisville International-Standiford Field Airport
Louisville, Kentucky, USA
Current

14 mins ago

KSDF 261956Z 21009KT 10SM FEW050 FEW250 32/20 A3011 RMK AO2 SLP192 T03220200
Observed
Jun-26 @ 19:56 UTC
Wind
  • 210° at 9 KTS
Visibility
10 SM
Flight Rules
VFR
Cloud Levels
  • Few at 5,000' AGL
  • Few at 25,000' AGL
Temperature
32°C / 90°F
Dewpoint
20°C / 68°F
Heat Index
34°C / 94°F
Humidity
49%
Altimeter
30.11" Hg
Pressure
1019.62 hPa
Previous

1 hour ago

KSDF 261856Z 21007KT 10SM FEW048 FEW250 32/19 A3012 RMK AO2 SLP195 T03220194
Observed
Jun-26 @ 18:56 UTC
Wind
  • 210° at 7 KTS
Visibility
10 SM
Flight Rules
VFR
Cloud Levels
  • Few at 4,800' AGL
  • Few at 25,000' AGL
Temperature
32°C / 90°F
Dewpoint
19°C / 66°F
Heat Index
34°C / 93°F
Humidity
46%
Altimeter
30.12" Hg
Pressure
1020.02 hPa
Previous

2 hours ago

KSDF 261756Z 22005KT 10SM FEW042 SCT250 32/21 A3014 RMK AO2 SLP200 T03170206 10317 20239 50000
Observed
Jun-26 @ 17:56 UTC
Wind
  • 220° at 5 KTS
Visibility
10 SM
Flight Rules
VFR
Cloud Levels
  • Few at 4,200' AGL
  • Scattered at 25,000' AGL
Temperature
32°C / 90°F
Dewpoint
21°C / 70°F
Heat Index
36°C / 96°F
Humidity
52%
Altimeter
30.14" Hg
Pressure
1020.62 hPa